sensor_id;sensor_type;location;lat;lon;timestamp;pressure;altitude;pressure_sealevel;temperature;humidity
78892;BME280;68368;51.728;5.248;2023-06-22T00:00:29;101898.65;;;17.82;77.19
78892;BME280;68368;51.728;5.248;2023-06-22T00:02:32;101897.33;;;17.77;77.33
78892;BME280;68368;51.728;5.248;2023-06-22T00:04:35;101898.50;;;17.71;77.28
78892;BME280;68368;51.728;5.248;2023-06-22T00:06:39;101895.91;;;17.67;77.15
78892;BME280;68368;51.728;5.248;2023-06-22T00:08:42;101892.95;;;17.63;77.83
78892;BME280;68368;51.728;5.248;2023-06-22T00:10:46;101890.87;;;17.59;78.14
78892;BME280;68368;51.728;5.248;2023-06-22T00:12:49;101887.20;;;17.55;78.18
78892;BME280;68368;51.728;5.248;2023-06-22T00:14:55;101890.49;;;17.52;78.45
78892;BME280;68368;51.728;5.248;2023-06-22T00:16:58;101891.11;;;17.49;78.43
78892;BME280;68368;51.728;5.248;2023-06-22T00:19:02;101887.23;;;17.45;78.29
78892;BME280;68368;51.728;5.248;2023-06-22T00:21:05;101886.21;;;17.43;78.07
78892;BME280;68368;51.728;5.248;2023-06-22T00:23:08;101883.71;;;17.42;77.86
78892;BME280;68368;51.728;5.248;2023-06-22T00:25:12;101878.73;;;17.40;77.92
78892;BME280;68368;51.728;5.248;2023-06-22T00:27:15;101877.47;;;17.40;77.79
78892;BME280;68368;51.728;5.248;2023-06-22T00:29:18;101875.65;;;17.41;77.67
78892;BME280;68368;51.728;5.248;2023-06-22T00:31:21;101876.91;;;17.41;77.74
78892;BME280;68368;51.728;5.248;2023-06-22T00:33:25;101879.95;;;17.42;77.97
78892;BME280;68368;51.728;5.248;2023-06-22T00:35:29;101877.81;;;17.41;77.74
78892;BME280;68368;51.728;5.248;2023-06-22T00:37:32;101879.61;;;17.41;77.83
78892;BME280;68368;51.728;5.248;2023-06-22T00:39:35;101880.52;;;17.41;77.84
78892;BME280;68368;51.728;5.248;2023-06-22T00:41:41;101879.83;;;17.39;78.66
78892;BME280;68368;51.728;5.248;2023-06-22T00:43:45;101881.13;;;17.37;79.93
78892;BME280;68368;51.728;5.248;2023-06-22T00:45:48;101883.02;;;17.33;80.12
78892;BME280;68368;51.728;5.248;2023-06-22T00:47:52;101880.96;;;17.29;79.98
78892;BME280;68368;51.728;5.248;2023-06-22T00:49:55;101879.26;;;17.24;79.56
78892;BME280;68368;51.728;5.248;2023-06-22T00:51:59;101879.14;;;17.21;79.64
78892;BME280;68368;51.728;5.248;2023-06-22T00:54:02;101880.98;;;17.18;80.13
78892;BME280;68368;51.728;5.248;2023-06-22T00:56:07;101883.19;;;17.16;80.30
78892;BME280;68368;51.728;5.248;2023-06-22T00:58:10;101877.81;;;17.16;80.36
78892;BME280;68368;51.728;5.248;2023-06-22T01:00:15;101876.95;;;17.14;79.93
78892;BME280;68368;51.728;5.248;2023-06-22T01:02:19;101877.14;;;17.14;79.67
78892;BME280;68368;51.728;5.248;2023-06-22T01:04:24;101866.09;;;17.10;79.69
78892;BME280;68368;51.728;5.248;2023-06-22T01:06:41;101861.28;;;17.08;80.11
78892;BME280;68368;51.728;5.248;2023-06-22T01:08:53;101863.46;;;17.07;80.00
78892;BME280;68368;51.728;5.248;2023-06-22T01:11:06;101864.71;;;17.08;80.11
78892;BME280;68368;51.728;5.248;2023-06-22T01:13:18;101861.51;;;17.06;80.10
78892;BME280;68368;51.728;5.248;2023-06-22T01:15:30;101858.30;;;17.05;80.21
78892;BME280;68368;51.728;5.248;2023-06-22T01:17:36;101857.59;;;17.04;80.35
78892;BME280;68368;51.728;5.248;2023-06-22T01:19:46;101857.64;;;17.03;80.24
78892;BME280;68368;51.728;5.248;2023-06-22T01:21:52;101860.89;;;17.01;79.96
78892;BME280;68368;51.728;5.248;2023-06-22T01:24:06;101857.02;;;16.98;79.88
78892;BME280;68368;51.728;5.248;2023-06-22T01:26:19;101858.52;;;16.94;80.23
78892;BME280;68368;51.728;5.248;2023-06-22T01:28:42;101861.61;;;16.92;80.66
78892;BME280;68368;51.728;5.248;2023-06-22T01:30:46;101859.14;;;16.90;80.49
78892;BME280;68368;51.728;5.248;2023-06-22T01:32:53;101858.63;;;16.89;80.68
78892;BME280;68368;51.728;5.248;2023-06-22T01:34:57;101862.96;;;16.88;80.66
78892;BME280;68368;51.728;5.248;2023-06-22T01:37:02;101861.20;;;16.85;81.04
78892;BME280;68368;51.728;5.248;2023-06-22T01:39:08;101861.62;;;16.83;81.24
78892;BME280;68368;51.728;5.248;2023-06-22T01:41:12;101864.49;;;16.83;81.85
78892;BME280;68368;51.728;5.248;2023-06-22T01:43:16;101863.06;;;16.83;81.79
78892;BME280;68368;51.728;5.248;2023-06-22T01:45:20;101859.30;;;16.82;81.82
78892;BME280;68368;51.728;5.248;2023-06-22T01:47:25;101865.95;;;16.82;81.90
78892;BME280;68368;51.728;5.248;2023-06-22T01:49:28;101866.17;;;16.80;81.71
78892;BME280;68368;51.728;5.248;2023-06-22T01:51:32;101866.73;;;16.78;81.83
78892;BME280;68368;51.728;5.248;2023-06-22T01:53:35;101869.46;;;16.76;81.87
78892;BME280;68368;51.728;5.248;2023-06-22T01:55:38;101869.27;;;16.77;82.03
78892;BME280;68368;51.728;5.248;2023-06-22T01:57:41;101870.00;;;16.77;82.29
78892;BME280;68368;51.728;5.248;2023-06-22T01:59:50;101867.84;;;16.76;82.59
78892;BME280;68368;51.728;5.248;2023-06-22T02:01:59;101868.58;;;16.76;82.52
78892;BME280;68368;51.728;5.248;2023-06-22T02:04:08;101863.73;;;16.75;82.59
78892;BME280;68368;51.728;5.248;2023-06-22T02:06:19;101863.91;;;16.73;82.65
78892;BME280;68368;51.728;5.248;2023-06-22T02:08:28;101860.19;;;16.71;82.93
78892;BME280;68368;51.728;5.248;2023-06-22T02:10:34;101857.86;;;16.71;83.07
78892;BME280;68368;51.728;5.248;2023-06-22T02:12:38;101850.73;;;16.70;83.15
78892;BME280;68368;51.728;5.248;2023-06-22T02:14:42;101855.61;;;16.67;82.58
78892;BME280;68368;51.728;5.248;2023-06-22T02:16:46;101852.63;;;16.64;82.94
78892;BME280;68368;51.728;5.248;2023-06-22T02:18:50;101853.74;;;16.62;83.25
78892;BME280;68368;51.728;5.248;2023-06-22T02:20:53;101858.20;;;16.63;83.16
78892;BME280;68368;51.728;5.248;2023-06-22T02:22:57;101853.19;;;16.62;83.04
78892;BME280;68368;51.728;5.248;2023-06-22T02:25:00;101854.80;;;16.63;83.44
78892;BME280;68368;51.728;5.248;2023-06-22T02:27:04;101852.79;;;16.65;83.67
78892;BME280;68368;51.728;5.248;2023-06-22T02:29:07;101848.09;;;16.67;83.90
78892;BME280;68368;51.728;5.248;2023-06-22T02:31:11;101851.50;;;16.67;83.76
78892;BME280;68368;51.728;5.248;2023-06-22T02:33:14;101849.54;;;16.66;83.53
78892;BME280;68368;51.728;5.248;2023-06-22T02:35:18;101849.35;;;16.66;83.60
78892;BME280;68368;51.728;5.248;2023-06-22T02:37:21;101843.44;;;16.67;83.51
78892;BME280;68368;51.728;5.248;2023-06-22T02:39:25;101838.96;;;16.67;83.16
78892;BME280;68368;51.728;5.248;2023-06-22T02:41:28;101835.89;;;16.67;83.02
78892;BME280;68368;51.728;5.248;2023-06-22T02:43:32;101836.80;;;16.67;82.68
78892;BME280;68368;51.728;5.248;2023-06-22T02:45:35;101838.59;;;16.67;82.84
78892;BME280;68368;51.728;5.248;2023-06-22T02:47:38;101839.81;;;16.68;82.91
78892;BME280;68368;51.728;5.248;2023-06-22T02:49:41;101838.40;;;16.68;82.69
78892;BME280;68368;51.728;5.248;2023-06-22T02:51:47;101836.59;;;16.68;82.59
78892;BME280;68368;51.728;5.248;2023-06-22T02:53:50;101838.19;;;16.68;82.80
78892;BME280;68368;51.728;5.248;2023-06-22T02:55:53;101834.64;;;16.67;82.91
78892;BME280;68368;51.728;5.248;2023-06-22T02:57:57;101842.35;;;16.67;82.87
78892;BME280;68368;51.728;5.248;2023-06-22T03:00:01;101836.27;;;16.66;82.86
78892;BME280;68368;51.728;5.248;2023-06-22T03:02:05;101838.60;;;16.67;83.03
78892;BME280;68368;51.728;5.248;2023-06-22T03:04:09;101836.64;;;16.66;82.89
78892;BME280;68368;51.728;5.248;2023-06-22T03:06:12;101836.85;;;16.64;82.91
78892;BME280;68368;51.728;5.248;2023-06-22T03:08:15;101834.56;;;16.62;82.84
78892;BME280;68368;51.728;5.248;2023-06-22T03:10:19;101825.65;;;16.59;83.02
78892;BME280;68368;51.728;5.248;2023-06-22T03:12:22;101820.86;;;16.57;83.28
78892;BME280;68368;51.728;5.248;2023-06-22T03:14:25;101809.98;;;16.54;83.02
78892;BME280;68368;51.728;5.248;2023-06-22T03:16:28;101806.08;;;16.51;83.23
78892;BME280;68368;51.728;5.248;2023-06-22T03:18:32;101807.20;;;16.49;83.14
78892;BME280;68368;51.728;5.248;2023-06-22T03:20:35;101808.66;;;16.48;83.26
78892;BME280;68368;51.728;5.248;2023-06-22T03:22:39;101806.35;;;16.46;83.61
78892;BME280;68368;51.728;5.248;2023-06-22T03:24:43;101806.55;;;16.45;83.86
78892;BME280;68368;51.728;5.248;2023-06-22T03:26:46;101806.03;;;16.45;83.73
78892;BME280;68368;51.728;5.248;2023-06-22T03:28:50;101806.41;;;16.44;83.81
78892;BME280;68368;51.728;5.248;2023-06-22T03:30:53;101804.08;;;16.43;83.72
78892;BME280;68368;51.728;5.248;2023-06-22T03:32:56;101801.92;;;16.44;83.97
78892;BME280;68368;51.728;5.248;2023-06-22T03:34:59;101803.88;;;16.44;83.77
78892;BME280;68368;51.728;5.248;2023-06-22T03:37:03;101798.17;;;16.43;83.75
78892;BME280;68368;51.728;5.248;2023-06-22T03:39:06;101800.33;;;16.43;83.81
78892;BME280;68368;51.728;5.248;2023-06-22T03:41:10;101805.52;;;16.42;84.29
78892;BME280;68368;51.728;5.248;2023-06-22T03:43:13;101804.43;;;16.44;84.12
78892;BME280;68368;51.728;5.248;2023-06-22T03:45:16;101805.86;;;16.44;83.73
78892;BME280;68368;51.728;5.248;2023-06-22T03:47:20;101800.83;;;16.45;84.01
78892;BME280;68368;51.728;5.248;2023-06-22T03:49:23;101802.00;;;16.49;84.60
78892;BME280;68368;51.728;5.248;2023-06-22T03:51:26;101802.45;;;16.53;84.67
78892;BME280;68368;51.728;5.248;2023-06-22T03:53:29;101803.27;;;16.58;83.99
78892;BME280;68368;51.728;5.248;2023-06-22T03:55:33;101807.67;;;16.62;84.17
78892;BME280;68368;51.728;5.248;2023-06-22T03:57:37;101809.38;;;16.66;83.85
78892;BME280;68368;51.728;5.248;2023-06-22T03:59:40;101811.26;;;16.71;83.67
78892;BME280;68368;51.728;5.248;2023-06-22T04:01:43;101806.13;;;16.78;83.27
78892;BME280;68368;51.728;5.248;2023-06-22T04:03:46;101803.41;;;16.88;83.13
78892;BME280;68368;51.728;5.248;2023-06-22T04:05:50;101801.73;;;17.07;82.70
78892;BME280;68368;51.728;5.248;2023-06-22T04:07:53;101797.71;;;17.35;82.07
78892;BME280;68368;51.728;5.248;2023-06-22T04:09:59;101790.13;;;17.68;81.56
78892;BME280;68368;51.728;5.248;2023-06-22T04:12:02;101788.96;;;18.15;80.44
78892;BME280;68368;51.728;5.248;2023-06-22T04:14:06;101786.17;;;18.64;78.96
78892;BME280;68368;51.728;5.248;2023-06-22T04:16:09;101784.05;;;19.12;77.45
78892;BME280;68368;51.728;5.248;2023-06-22T04:18:12;101779.16;;;19.54;76.28
78892;BME280;68368;51.728;5.248;2023-06-22T04:20:15;101777.20;;;19.86;74.96
78892;BME280;68368;51.728;5.248;2023-06-22T04:22:25;101777.16;;;20.24;73.52
78892;BME280;68368;51.728;5.248;2023-06-22T04:24:29;101773.19;;;20.65;72.00
78892;BME280;68368;51.728;5.248;2023-06-22T04:26:32;101779.30;;;21.18;70.65
78892;BME280;68368;51.728;5.248;2023-06-22T04:28:35;101784.66;;;21.69;69.30
78892;BME280;68368;51.728;5.248;2023-06-22T04:30:38;101775.64;;;22.20;67.09
78892;BME280;68368;51.728;5.248;2023-06-22T04:32:42;101779.24;;;22.53;65.33
78892;BME280;68368;51.728;5.248;2023-06-22T04:34:45;101779.16;;;22.75;64.95
78892;BME280;68368;51.728;5.248;2023-06-22T04:36:49;101783.70;;;22.71;64.48
78892;BME280;68368;51.728;5.248;2023-06-22T04:38:52;101786.59;;;22.67;64.41
78892;BME280;68368;51.728;5.248;2023-06-22T04:40:55;101785.63;;;22.68;63.24
78892;BME280;68368;51.728;5.248;2023-06-22T04:42:58;101784.92;;;22.76;63.02
78892;BME280;68368;51.728;5.248;2023-06-22T04:45:05;101788.29;;;22.85;62.41
78892;BME280;68368;51.728;5.248;2023-06-22T04:47:09;101789.78;;;23.00;61.07
78892;BME280;68368;51.728;5.248;2023-06-22T04:49:12;101792.61;;;23.21;61.13
78892;BME280;68368;51.728;5.248;2023-06-22T04:51:15;101795.52;;;23.50;60.20
78892;BME280;68368;51.728;5.248;2023-06-22T04:53:19;101798.29;;;23.90;58.85
78892;BME280;68368;51.728;5.248;2023-06-22T04:55:23;101794.17;;;24.31;57.05
78892;BME280;68368;51.728;5.248;2023-06-22T04:57:26;101796.30;;;24.60;55.73
78892;BME280;68368;51.728;5.248;2023-06-22T04:59:32;101794.35;;;24.73;55.97
78892;BME280;68368;51.728;5.248;2023-06-22T05:01:35;101795.39;;;24.57;56.22
78892;BME280;68368;51.728;5.248;2023-06-22T05:03:38;101793.80;;;24.28;55.97
78892;BME280;68368;51.728;5.248;2023-06-22T05:05:42;101799.97;;;23.93;56.50
78892;BME280;68368;51.728;5.248;2023-06-22T05:07:46;101801.44;;;23.78;57.25
78892;BME280;68368;51.728;5.248;2023-06-22T05:09:50;101801.15;;;23.69;57.50
78892;BME280;68368;51.728;5.248;2023-06-22T05:11:54;101802.03;;;23.51;57.83
78892;BME280;68368;51.728;5.248;2023-06-22T05:13:57;101797.02;;;23.57;58.00
78892;BME280;68368;51.728;5.248;2023-06-22T05:16:01;101796.70;;;23.82;57.62
78892;BME280;68368;51.728;5.248;2023-06-22T05:18:04;101797.38;;;24.22;57.21
78892;BME280;68368;51.728;5.248;2023-06-22T05:20:10;101800.86;;;24.86;55.64
78892;BME280;68368;51.728;5.248;2023-06-22T05:22:13;101797.64;;;25.51;53.99
78892;BME280;68368;51.728;5.248;2023-06-22T05:24:17;101795.48;;;25.88;53.25
78892;BME280;68368;51.728;5.248;2023-06-22T05:26:20;101793.52;;;26.09;52.66
78892;BME280;68368;51.728;5.248;2023-06-22T05:28:24;101789.73;;;26.42;51.44
78892;BME280;68368;51.728;5.248;2023-06-22T05:30:28;101789.11;;;26.60;50.79
78892;BME280;68368;51.728;5.248;2023-06-22T05:32:31;101795.75;;;26.94;50.49
78892;BME280;68368;51.728;5.248;2023-06-22T05:34:34;101791.92;;;27.50;48.78
78892;BME280;68368;51.728;5.248;2023-06-22T05:36:38;101791.20;;;28.13;48.15
78892;BME280;68368;51.728;5.248;2023-06-22T05:38:41;101790.48;;;28.58;46.50
78892;BME280;68368;51.728;5.248;2023-06-22T05:40:45;101788.13;;;28.55;45.69
78892;BME280;68368;51.728;5.248;2023-06-22T05:42:48;101787.04;;;28.36;45.70
78892;BME280;68368;51.728;5.248;2023-06-22T05:44:52;101788.34;;;28.36;45.78
78892;BME280;68368;51.728;5.248;2023-06-22T05:46:55;101786.86;;;28.33;45.46
78892;BME280;68368;51.728;5.248;2023-06-22T05:48:58;101785.34;;;28.21;45.22
78892;BME280;68368;51.728;5.248;2023-06-22T05:51:02;101780.55;;;27.95;45.78
78892;BME280;68368;51.728;5.248;2023-06-22T05:53:08;101781.25;;;28.01;45.03
78892;BME280;68368;51.728;5.248;2023-06-22T05:55:11;101776.77;;;28.24;44.69
78892;BME280;68368;51.728;5.248;2023-06-22T05:57:15;101777.31;;;28.94;43.83
78892;BME280;68368;51.728;5.248;2023-06-22T05:59:19;101775.73;;;29.62;41.96
78892;BME280;68368;51.728;5.248;2023-06-22T06:01:22;101775.05;;;29.88;41.56
78892;BME280;68368;51.728;5.248;2023-06-22T06:03:26;101776.55;;;30.07;41.47
78892;BME280;68368;51.728;5.248;2023-06-22T06:05:29;101771.60;;;30.14;41.08
78892;BME280;68368;51.728;5.248;2023-06-22T06:07:32;101769.66;;;30.13;40.83
78892;BME280;68368;51.728;5.248;2023-06-22T06:09:35;101770.39;;;30.32;40.30
78892;BME280;68368;51.728;5.248;2023-06-22T06:11:39;101764.98;;;30.77;39.96
78892;BME280;68368;51.728;5.248;2023-06-22T06:13:42;101757.13;;;31.52;39.18
78892;BME280;68368;51.728;5.248;2023-06-22T06:15:45;101757.82;;;32.28;37.82
78892;BME280;68368;51.728;5.248;2023-06-22T06:17:50;101762.13;;;32.87;36.83
78892;BME280;68368;51.728;5.248;2023-06-22T06:19:53;101761.27;;;33.07;35.91
78892;BME280;68368;51.728;5.248;2023-06-22T06:21:56;101758.05;;;32.81;36.02
78892;BME280;68368;51.728;5.248;2023-06-22T06:24:00;101756.20;;;32.17;36.19
78892;BME280;68368;51.728;5.248;2023-06-22T06:26:03;101763.70;;;31.44;37.80
78892;BME280;68368;51.728;5.248;2023-06-22T06:28:06;101770.17;;;30.90;39.08
78892;BME280;68368;51.728;5.248;2023-06-22T06:30:12;101770.53;;;30.32;39.70
78892;BME280;68368;51.728;5.248;2023-06-22T06:32:15;101769.77;;;29.66;40.86
78892;BME280;68368;51.728;5.248;2023-06-22T06:34:18;101772.75;;;29.13;42.01
78892;BME280;68368;51.728;5.248;2023-06-22T06:36:22;101772.95;;;28.65;43.23
78892;BME280;68368;51.728;5.248;2023-06-22T06:38:25;101768.92;;;28.31;43.93
78892;BME280;68368;51.728;5.248;2023-06-22T06:40:28;101766.36;;;28.18;44.47
78892;BME280;68368;51.728;5.248;2023-06-22T06:42:31;101763.09;;;28.29;44.90
78892;BME280;68368;51.728;5.248;2023-06-22T06:44:35;101768.40;;;28.55;44.79
78892;BME280;68368;51.728;5.248;2023-06-22T06:46:38;101766.11;;;28.86;44.34
78892;BME280;68368;51.728;5.248;2023-06-22T06:48:43;101766.89;;;29.16;43.67
78892;BME280;68368;51.728;5.248;2023-06-22T06:50:49;101759.31;;;29.57;43.06
78892;BME280;68368;51.728;5.248;2023-06-22T06:52:52;101757.89;;;30.02;41.89
78892;BME280;68368;51.728;5.248;2023-06-22T06:54:55;101760.48;;;30.55;41.16
78892;BME280;68368;51.728;5.248;2023-06-22T06:57:01;101761.90;;;31.08;39.72
78892;BME280;68368;51.728;5.248;2023-06-22T06:59:04;101761.00;;;31.59;39.20
78892;BME280;68368;51.728;5.248;2023-06-22T07:01:08;101758.68;;;32.03;38.61
78892;BME280;68368;51.728;5.248;2023-06-22T07:03:11;101759.69;;;32.42;37.54
78892;BME280;68368;51.728;5.248;2023-06-22T07:05:14;101759.58;;;32.64;35.88
78892;BME280;68368;51.728;5.248;2023-06-22T07:07:17;101756.00;;;32.80;36.03
78892;BME280;68368;51.728;5.248;2023-06-22T07:09:21;101761.31;;;33.09;36.19
78892;BME280;68368;51.728;5.248;2023-06-22T07:11:24;101760.22;;;32.92;36.29
78892;BME280;68368;51.728;5.248;2023-06-22T07:13:27;101753.43;;;32.38;37.12
78892;BME280;68368;51.728;5.248;2023-06-22T07:15:32;101751.52;;;31.92;37.77
78892;BME280;68368;51.728;5.248;2023-06-22T07:17:35;101756.90;;;31.64;38.47
78892;BME280;68368;51.728;5.248;2023-06-22T07:19:39;101753.05;;;31.39;38.61
78892;BME280;68368;51.728;5.248;2023-06-22T07:21:43;101752.71;;;31.01;39.44
78892;BME280;68368;51.728;5.248;2023-06-22T07:23:47;101746.82;;;30.54;40.17
78892;BME280;68368;51.728;5.248;2023-06-22T07:25:51;101742.42;;;30.17;40.77
78892;BME280;68368;51.728;5.248;2023-06-22T07:28:02;101739.02;;;29.78;40.74
78892;BME280;68368;51.728;5.248;2023-06-22T07:30:07;101738.69;;;29.46;41.45
78892;BME280;68368;51.728;5.248;2023-06-22T07:32:13;101736.59;;;29.28;42.06
78892;BME280;68368;51.728;5.248;2023-06-22T07:34:16;101736.12;;;29.39;42.34
78892;BME280;68368;51.728;5.248;2023-06-22T07:36:20;101733.38;;;29.46;42.12
78892;BME280;68368;51.728;5.248;2023-06-22T07:38:23;101731.17;;;29.29;42.32
78892;BME280;68368;51.728;5.248;2023-06-22T07:40:26;101740.79;;;29.11;42.78
78892;BME280;68368;51.728;5.248;2023-06-22T07:42:30;101736.21;;;28.81;42.71
78892;BME280;68368;51.728;5.248;2023-06-22T07:44:33;101729.88;;;28.52;43.17
78892;BME280;68368;51.728;5.248;2023-06-22T07:46:36;101728.48;;;28.32;43.65
78892;BME280;68368;51.728;5.248;2023-06-22T07:48:40;101723.58;;;28.37;43.72
78892;BME280;68368;51.728;5.248;2023-06-22T07:50:43;101726.51;;;28.42;44.06
78892;BME280;68368;51.728;5.248;2023-06-22T07:52:46;101725.80;;;28.50;44.19
78892;BME280;68368;51.728;5.248;2023-06-22T07:54:49;101722.13;;;28.48;43.91
78892;BME280;68368;51.728;5.248;2023-06-22T07:56:53;101718.58;;;28.38;44.23
78892;BME280;68368;51.728;5.248;2023-06-22T07:58:56;101718.45;;;28.20;44.30
78892;BME280;68368;51.728;5.248;2023-06-22T08:00:59;101713.88;;;27.99;44.62
78892;BME280;68368;51.728;5.248;2023-06-22T08:03:02;101709.73;;;27.74;45.46
78892;BME280;68368;51.728;5.248;2023-06-22T08:05:09;101702.79;;;27.53;46.03
78892;BME280;68368;51.728;5.248;2023-06-22T08:07:12;101697.50;;;27.34;46.50
78892;BME280;68368;51.728;5.248;2023-06-22T08:09:16;101692.02;;;27.17;46.95
78892;BME280;68368;51.728;5.248;2023-06-22T08:11:19;101691.60;;;27.01;47.19
78892;BME280;68368;51.728;5.248;2023-06-22T08:13:25;101694.53;;;26.87;47.59
78892;BME280;68368;51.728;5.248;2023-06-22T08:15:29;101689.57;;;26.76;47.91
78892;BME280;68368;51.728;5.248;2023-06-22T08:17:35;101689.16;;;26.66;47.91
78892;BME280;68368;51.728;5.248;2023-06-22T08:19:39;101684.89;;;26.53;48.06
78892;BME280;68368;51.728;5.248;2023-06-22T08:21:43;101683.66;;;26.43;48.47
78892;BME280;68368;51.728;5.248;2023-06-22T08:23:47;101684.67;;;26.41;48.62
78892;BME280;68368;51.728;5.248;2023-06-22T08:25:51;101681.14;;;26.46;48.90
78892;BME280;68368;51.728;5.248;2023-06-22T08:27:54;101676.23;;;26.52;48.95
78892;BME280;68368;51.728;5.248;2023-06-22T08:29:57;101670.61;;;26.57;49.07
78892;BME280;68368;51.728;5.248;2023-06-22T08:32:00;101672.32;;;26.59;48.43
78892;BME280;68368;51.728;5.248;2023-06-22T08:34:04;101668.02;;;26.52;48.38
78892;BME280;68368;51.728;5.248;2023-06-22T08:36:07;101668.61;;;26.48;48.60
78892;BME280;68368;51.728;5.248;2023-06-22T08:38:11;101664.27;;;26.42;48.54
78892;BME280;68368;51.728;5.248;2023-06-22T08:40:14;101657.40;;;26.29;48.76
78892;BME280;68368;51.728;5.248;2023-06-22T08:42:17;101658.91;;;26.17;48.87
78892;BME280;68368;51.728;5.248;2023-06-22T08:44:21;101663.96;;;26.03;49.34
78892;BME280;68368;51.728;5.248;2023-06-22T08:46:24;101666.45;;;25.89;50.01
78892;BME280;68368;51.728;5.248;2023-06-22T08:48:27;101666.90;;;25.81;50.58
78892;BME280;68368;51.728;5.248;2023-06-22T08:50:31;101672.36;;;25.69;51.08
78892;BME280;68368;51.728;5.248;2023-06-22T08:52:34;101675.77;;;25.64;51.32
78892;BME280;68368;51.728;5.248;2023-06-22T08:54:37;101676.29;;;25.59;51.52
78892;BME280;68368;51.728;5.248;2023-06-22T08:56:44;101680.13;;;25.55;51.26
78892;BME280;68368;51.728;5.248;2023-06-22T08:58:47;101678.54;;;25.51;51.52
78892;BME280;68368;51.728;5.248;2023-06-22T09:00:50;101675.23;;;25.49;51.74
78892;BME280;68368;51.728;5.248;2023-06-22T09:02:54;101675.05;;;25.49;51.54
78892;BME280;68368;51.728;5.248;2023-06-22T09:04:58;101673.40;;;25.43;50.58
78892;BME280;68368;51.728;5.248;2023-06-22T09:07:01;101673.98;;;25.33;51.25
78892;BME280;68368;51.728;5.248;2023-06-22T09:09:07;101667.22;;;25.24;51.79
78892;BME280;68368;51.728;5.248;2023-06-22T09:11:10;101667.20;;;25.18;52.49
78892;BME280;68368;51.728;5.248;2023-06-22T09:13:14;101668.88;;;25.18;53.12
78892;BME280;68368;51.728;5.248;2023-06-22T09:15:18;101664.25;;;25.19;53.22
78892;BME280;68368;51.728;5.248;2023-06-22T09:17:21;101663.46;;;25.17;52.28
78892;BME280;68368;51.728;5.248;2023-06-22T09:19:25;101661.47;;;25.10;51.65
78892;BME280;68368;51.728;5.248;2023-06-22T09:21:30;101661.09;;;25.07;52.14
78892;BME280;68368;51.728;5.248;2023-06-22T09:23:34;101661.29;;;25.07;52.29
78892;BME280;68368;51.728;5.248;2023-06-22T09:25:37;101657.30;;;25.06;51.90
78892;BME280;68368;51.728;5.248;2023-06-22T09:27:40;101656.26;;;25.02;51.70
78892;BME280;68368;51.728;5.248;2023-06-22T09:29:44;101653.66;;;24.98;51.68
78892;BME280;68368;51.728;5.248;2023-06-22T09:31:47;101651.01;;;24.93;51.52
78892;BME280;68368;51.728;5.248;2023-06-22T09:33:50;101649.53;;;24.90;51.54
78892;BME280;68368;51.728;5.248;2023-06-22T09:35:54;101643.27;;;24.89;51.66
78892;BME280;68368;51.728;5.248;2023-06-22T09:37:57;101644.04;;;24.88;51.01
78892;BME280;68368;51.728;5.248;2023-06-22T09:40:00;101640.19;;;24.89;50.92
78892;BME280;68368;51.728;5.248;2023-06-22T09:42:04;101643.27;;;24.92;51.14
78892;BME280;68368;51.728;5.248;2023-06-22T09:44:08;101639.21;;;24.96;51.32
78892;BME280;68368;51.728;5.248;2023-06-22T09:46:14;101641.52;;;25.00;51.36
78892;BME280;68368;51.728;5.248;2023-06-22T09:48:18;101642.37;;;25.04;51.29
78892;BME280;68368;51.728;5.248;2023-06-22T09:50:21;101644.77;;;25.07;51.44
78892;BME280;68368;51.728;5.248;2023-06-22T09:52:24;101637.50;;;25.10;51.53
78892;BME280;68368;51.728;5.248;2023-06-22T09:54:28;101634.81;;;25.09;51.35
78892;BME280;68368;51.728;5.248;2023-06-22T09:56:31;101635.81;;;25.07;50.97
78892;BME280;68368;51.728;5.248;2023-06-22T09:58:34;101633.77;;;25.05;51.07
78892;BME280;68368;51.728;5.248;2023-06-22T10:00:39;101630.79;;;25.03;51.18
78892;BME280;68368;51.728;5.248;2023-06-22T10:02:43;101629.02;;;24.99;51.19
78892;BME280;68368;51.728;5.248;2023-06-22T10:04:46;101634.52;;;24.95;51.05
78892;BME280;68368;51.728;5.248;2023-06-22T10:06:49;101633.94;;;24.93;51.18
78892;BME280;68368;51.728;5.248;2023-06-22T10:08:53;101636.27;;;24.90;51.12
78892;BME280;68368;51.728;5.248;2023-06-22T10:10:56;101638.39;;;24.88;51.03
78892;BME280;68368;51.728;5.248;2023-06-22T10:13:07;101636.38;;;24.85;51.11
78892;BME280;68368;51.728;5.248;2023-06-22T10:15:11;101642.20;;;24.82;50.95
78892;BME280;68368;51.728;5.248;2023-06-22T10:17:15;101639.63;;;24.79;51.21
78892;BME280;68368;51.728;5.248;2023-06-22T10:19:18;101638.02;;;24.79;51.29
78892;BME280;68368;51.728;5.248;2023-06-22T10:21:21;101634.91;;;24.79;51.28
78892;BME280;68368;51.728;5.248;2023-06-22T10:23:24;101638.73;;;24.79;51.04
78892;BME280;68368;51.728;5.248;2023-06-22T10:25:28;101635.35;;;24.78;50.82
78892;BME280;68368;51.728;5.248;2023-06-22T10:27:31;101633.86;;;24.75;50.89
78892;BME280;68368;51.728;5.248;2023-06-22T10:29:34;101634.96;;;24.75;51.14
78892;BME280;68368;51.728;5.248;2023-06-22T10:31:38;101630.93;;;24.76;51.07
78892;BME280;68368;51.728;5.248;2023-06-22T10:33:41;101627.66;;;24.76;51.12
78892;BME280;68368;51.728;5.248;2023-06-22T10:35:44;101628.30;;;24.77;51.29
78892;BME280;68368;51.728;5.248;2023-06-22T10:37:48;101627.77;;;24.80;51.49
78892;BME280;68368;51.728;5.248;2023-06-22T10:39:52;101625.50;;;24.82;51.61
78892;BME280;68368;51.728;5.248;2023-06-22T10:41:55;101626.34;;;24.80;51.61
78892;BME280;68368;51.728;5.248;2023-06-22T10:43:58;101627.35;;;24.75;51.56
78892;BME280;68368;51.728;5.248;2023-06-22T10:46:02;101628.11;;;24.71;51.76
78892;BME280;68368;51.728;5.248;2023-06-22T10:48:08;101625.92;;;24.71;51.97